Brockport, NY (14420)

4:00 AM EDT on July 06, 2015 (GMT -0400)
Clarkson Parma TL Rd. | | Change Station
CLOSE
Current Station
Personal Weather Station
Location: Brockport, NY
Elevation: 331 ft
Nearby Weather Stations

Elev 331 ft 43.27 °N, 77.84 °W | Updated 13 minutes ago

Partly Cloudy
Partly Cloudy
63.3 °F
Feels Like 63.3 °F
N
2.2
Wind Variable Wind from South

Today
High -- | Low -- °F
--% Chance of Precip.
Yesterday
High -- | Low -- °F
Precip. -- in
5:38 AM 8:54 PM
Waning Gibbous, 78% visible
Pressure 30.12 in
Visibility 8.0 miles
Clouds Few 30000 ft
Dew Point 60 °F
Humidity 88%
Rainfall 0.00 in
Snow Depth Not available.
UV 0 out of 12
Pollen 4.10 out of 12
Air Quality Not available.
Flu Activity Not available.
METAR KROC 060754Z 00000KT 8SM FEW300 18/16 A3012 RMK AO2 SLP198 T01780161

More Conditions Fewer Conditions

Pressure 30.12 in
Visibility 8.0 miles
Clouds Few 30000 ft
Dew Point 60 °F
Humidity 88%
Rainfall 0.00 in
Snow Depth Not available.
UV 0 out of 12
Pollen 4.10 out of 12
Air Quality Not available.
Flu Activity Not available.
METAR KROC 060754Z 00000KT 8SM FEW300 18/16 A3012 RMK AO2 SLP198 T01780161

More Conditions Fewer Conditions

10-Day Weather Forecast

×

Almanac

Astronomy

Jul. 06, 2015 Rise Set
Actual Time
Civil Twilight
Nautical Twilight
Astronomical Twilight
Moon
Length of Visible Light
Length of Day
Tomorrow will be .
, % of the Moon is Illuminated

Today's Extremes

State Highs State Lows

Community

WunderPhotos

Upload Photos

1,835,508 photos uploaded!

WunderBlogs® & News

Nearby

Air Quality

  Air Quality AQ Index Pollutant
Not available.

Snow Depth

Station Depth Elevation

Earthquake Activity

City Distance Mag. Time & Date
Minimum magnitude displayed is 2.5.

Coastal Water Temperatures

Place Temperature

Stations

Nearby Weather Stations

Station Location Temp. Windchill Dew Point Humidity Wind Precip. Elev Updated Type